sensor_id;sensor_type;location;lat;lon;timestamp;temperature;humidity
13113;DHT22;6622;49.752;6.100;2022-08-21T00:00:49;15.20;99.90
13113;DHT22;6622;49.752;6.100;2022-08-21T00:03:16;15.20;99.90
13113;DHT22;6622;49.752;6.100;2022-08-21T00:05:47;15.20;99.90
13113;DHT22;6622;49.752;6.100;2022-08-21T00:08:10;15.20;99.90
13113;DHT22;6622;49.752;6.100;2022-08-21T00:10:37;15.00;99.90
13113;DHT22;6622;49.752;6.100;2022-08-21T00:13:04;15.00;99.90
13113;DHT22;6622;49.752;6.100;2022-08-21T00:15:31;14.80;99.90
13113;DHT22;6622;49.752;6.100;2022-08-21T00:17:57;14.80;99.90
13113;DHT22;6622;49.752;6.100;2022-08-21T00:20:25;14.80;99.90
13113;DHT22;6622;49.752;6.100;2022-08-21T00:22:51;14.80;99.90
13113;DHT22;6622;49.752;6.100;2022-08-21T00:25:18;14.80;99.90
13113;DHT22;6622;49.752;6.100;2022-08-21T00:27:45;14.80;99.90
13113;DHT22;6622;49.752;6.100;2022-08-21T00:30:12;14.80;99.90
13113;DHT22;6622;49.752;6.100;2022-08-21T00:32:38;14.80;99.90
13113;DHT22;6622;49.752;6.100;2022-08-21T00:35:08;14.60;99.90
13113;DHT22;6622;49.752;6.100;2022-08-21T00:37:34;14.60;99.90
13113;DHT22;6622;49.752;6.100;2022-08-21T00:40:00;14.60;99.90
13113;DHT22;6622;49.752;6.100;2022-08-21T00:42:27;14.70;99.90
13113;DHT22;6622;49.752;6.100;2022-08-21T00:44:54;14.80;99.90
13113;DHT22;6622;49.752;6.100;2022-08-21T00:47:20;14.80;99.90
13113;DHT22;6622;49.752;6.100;2022-08-21T00:49:48;14.60;99.90
13113;DHT22;6622;49.752;6.100;2022-08-21T00:52:19;14.60;99.90
13113;DHT22;6622;49.752;6.100;2022-08-21T00:54:44;14.60;99.90
13113;DHT22;6622;49.752;6.100;2022-08-21T00:57:15;14.50;99.90
13113;DHT22;6622;49.752;6.100;2022-08-21T00:59:40;14.40;99.90
13113;DHT22;6622;49.752;6.100;2022-08-21T01:02:07;14.30;99.90
13113;DHT22;6622;49.752;6.100;2022-08-21T01:04:34;14.20;99.90
13113;DHT22;6622;49.752;6.100;2022-08-21T01:07:01;14.20;99.90
13113;DHT22;6622;49.752;6.100;2022-08-21T01:09:27;14.10;99.90
13113;DHT22;6622;49.752;6.100;2022-08-21T01:11:54;14.10;99.90
13113;DHT22;6622;49.752;6.100;2022-08-21T01:14:20;14.10;99.90
13113;DHT22;6622;49.752;6.100;2022-08-21T01:16:49;14.00;99.90
13113;DHT22;6622;49.752;6.100;2022-08-21T01:19:14;14.00;99.90
13113;DHT22;6622;49.752;6.100;2022-08-21T01:21:41;13.90;99.90
13113;DHT22;6622;49.752;6.100;2022-08-21T01:24:08;13.90;99.90
13113;DHT22;6622;49.752;6.100;2022-08-21T01:26:36;13.80;99.90
13113;DHT22;6622;49.752;6.100;2022-08-21T01:29:09;13.80;99.90
13113;DHT22;6622;49.752;6.100;2022-08-21T01:31:31;13.80;99.90
13113;DHT22;6622;49.752;6.100;2022-08-21T01:33:58;13.90;99.90
13113;DHT22;6622;49.752;6.100;2022-08-21T01:36:25;13.70;99.90
13113;DHT22;6622;49.752;6.100;2022-08-21T01:38:52;13.70;99.90
13113;DHT22;6622;49.752;6.100;2022-08-21T01:41:19;13.70;99.90
13113;DHT22;6622;49.752;6.100;2022-08-21T01:43:45;13.70;99.90
13113;DHT22;6622;49.752;6.100;2022-08-21T01:46:12;13.90;99.90
13113;DHT22;6622;49.752;6.100;2022-08-21T01:48:39;13.90;99.90
13113;DHT22;6622;49.752;6.100;2022-08-21T01:51:05;13.80;99.90
13113;DHT22;6622;49.752;6.100;2022-08-21T01:53:32;13.70;99.90
13113;DHT22;6622;49.752;6.100;2022-08-21T01:55:58;13.70;99.90
13113;DHT22;6622;49.752;6.100;2022-08-21T01:58:25;13.70;99.90
13113;DHT22;6622;49.752;6.100;2022-08-21T02:00:52;13.60;99.90
13113;DHT22;6622;49.752;6.100;2022-08-21T02:03:18;13.60;99.90
13113;DHT22;6622;49.752;6.100;2022-08-21T02:05:45;13.60;99.90
13113;DHT22;6622;49.752;6.100;2022-08-21T02:08:11;13.60;99.90
13113;DHT22;6622;49.752;6.100;2022-08-21T02:10:38;13.60;99.90
13113;DHT22;6622;49.752;6.100;2022-08-21T02:13:05;13.50;99.90
13113;DHT22;6622;49.752;6.100;2022-08-21T02:15:31;13.50;99.90
13113;DHT22;6622;49.752;6.100;2022-08-21T02:17:59;13.50;99.90
13113;DHT22;6622;49.752;6.100;2022-08-21T02:20:29;13.40;99.90
13113;DHT22;6622;49.752;6.100;2022-08-21T02:22:54;13.40;99.90
13113;DHT22;6622;49.752;6.100;2022-08-21T02:25:21;13.30;99.90
13113;DHT22;6622;49.752;6.100;2022-08-21T02:27:48;13.30;99.90
13113;DHT22;6622;49.752;6.100;2022-08-21T02:30:15;13.30;99.90
13113;DHT22;6622;49.752;6.100;2022-08-21T02:32:41;13.40;99.90
13113;DHT22;6622;49.752;6.100;2022-08-21T02:35:07;13.30;99.90
13113;DHT22;6622;49.752;6.100;2022-08-21T02:37:34;13.20;99.90
13113;DHT22;6622;49.752;6.100;2022-08-21T02:40:01;13.10;99.90
13113;DHT22;6622;49.752;6.100;2022-08-21T02:42:27;13.10;99.90
13113;DHT22;6622;49.752;6.100;2022-08-21T02:44:54;13.20;99.90
13113;DHT22;6622;49.752;6.100;2022-08-21T02:47:20;13.20;99.90
13113;DHT22;6622;49.752;6.100;2022-08-21T02:49:47;13.10;99.90
13113;DHT22;6622;49.752;6.100;2022-08-21T02:52:14;13.10;99.90
13113;DHT22;6622;49.752;6.100;2022-08-21T02:54:40;13.00;99.90
13113;DHT22;6622;49.752;6.100;2022-08-21T02:57:08;12.80;99.90
13113;DHT22;6622;49.752;6.100;2022-08-21T02:59:34;12.80;99.90
13113;DHT22;6622;49.752;6.100;2022-08-21T03:02:02;12.70;99.90
13113;DHT22;6622;49.752;6.100;2022-08-21T03:04:28;12.60;99.90
13113;DHT22;6622;49.752;6.100;2022-08-21T03:06:55;12.70;99.90
13113;DHT22;6622;49.752;6.100;2022-08-21T03:09:22;12.70;99.90
13113;DHT22;6622;49.752;6.100;2022-08-21T03:11:48;12.70;99.90
13113;DHT22;6622;49.752;6.100;2022-08-21T03:14:16;12.90;99.90
13113;DHT22;6622;49.752;6.100;2022-08-21T03:16:42;12.80;99.90
13113;DHT22;6622;49.752;6.100;2022-08-21T03:19:09;12.90;99.90
13113;DHT22;6622;49.752;6.100;2022-08-21T03:21:35;12.90;99.90
13113;DHT22;6622;49.752;6.100;2022-08-21T03:24:02;12.90;99.90
13113;DHT22;6622;49.752;6.100;2022-08-21T03:26:29;12.80;99.90
13113;DHT22;6622;49.752;6.100;2022-08-21T03:28:56;12.70;99.90
13113;DHT22;6622;49.752;6.100;2022-08-21T03:31:23;12.70;99.90
13113;DHT22;6622;49.752;6.100;2022-08-21T03:33:49;12.70;99.90
13113;DHT22;6622;49.752;6.100;2022-08-21T03:36:16;12.70;99.90
13113;DHT22;6622;49.752;6.100;2022-08-21T03:38:43;12.60;99.90
13113;DHT22;6622;49.752;6.100;2022-08-21T03:41:09;12.60;99.90
13113;DHT22;6622;49.752;6.100;2022-08-21T03:43:36;12.70;99.90
13113;DHT22;6622;49.752;6.100;2022-08-21T03:46:03;12.60;99.90
13113;DHT22;6622;49.752;6.100;2022-08-21T03:48:29;12.60;99.90
13113;DHT22;6622;49.752;6.100;2022-08-21T03:50:56;12.60;99.90
13113;DHT22;6622;49.752;6.100;2022-08-21T03:53:23;12.50;99.90
13113;DHT22;6622;49.752;6.100;2022-08-21T03:55:49;12.40;99.90
13113;DHT22;6622;49.752;6.100;2022-08-21T03:58:16;12.40;99.90
13113;DHT22;6622;49.752;6.100;2022-08-21T04:00:43;12.30;99.90
13113;DHT22;6622;49.752;6.100;2022-08-21T04:03:09;12.30;99.90
13113;DHT22;6622;49.752;6.100;2022-08-21T04:05:36;12.30;99.90
13113;DHT22;6622;49.752;6.100;2022-08-21T04:08:03;12.30;99.90
13113;DHT22;6622;49.752;6.100;2022-08-21T04:10:29;12.20;99.90
13113;DHT22;6622;49.752;6.100;2022-08-21T04:12:55;12.30;99.90
13113;DHT22;6622;49.752;6.100;2022-08-21T04:15:23;12.30;99.90
13113;DHT22;6622;49.752;6.100;2022-08-21T04:17:50;12.00;99.90
13113;DHT22;6622;49.752;6.100;2022-08-21T04:20:19;12.00;99.90
13113;DHT22;6622;49.752;6.100;2022-08-21T04:22:45;12.00;99.90
13113;DHT22;6622;49.752;6.100;2022-08-21T04:25:13;12.00;99.90
13113;DHT22;6622;49.752;6.100;2022-08-21T04:27:39;12.00;99.90
13113;DHT22;6622;49.752;6.100;2022-08-21T04:30:06;12.00;99.90
13113;DHT22;6622;49.752;6.100;2022-08-21T04:32:32;12.10;99.90
13113;DHT22;6622;49.752;6.100;2022-08-21T04:35:00;12.00;99.90
13113;DHT22;6622;49.752;6.100;2022-08-21T04:37:26;12.00;99.90
13113;DHT22;6622;49.752;6.100;2022-08-21T04:39:53;11.90;99.90
13113;DHT22;6622;49.752;6.100;2022-08-21T04:42:20;12.00;99.90
13113;DHT22;6622;49.752;6.100;2022-08-21T04:44:47;12.00;99.90
13113;DHT22;6622;49.752;6.100;2022-08-21T04:47:13;12.00;99.90
13113;DHT22;6622;49.752;6.100;2022-08-21T04:49:40;12.10;99.90
13113;DHT22;6622;49.752;6.100;2022-08-21T04:52:07;12.10;99.90
13113;DHT22;6622;49.752;6.100;2022-08-21T04:54:34;12.00;99.90
13113;DHT22;6622;49.752;6.100;2022-08-21T04:57:01;12.00;99.90
13113;DHT22;6622;49.752;6.100;2022-08-21T04:59:28;12.10;99.90
13113;DHT22;6622;49.752;6.100;2022-08-21T05:01:55;12.20;99.90
13113;DHT22;6622;49.752;6.100;2022-08-21T05:04:22;12.20;99.90
13113;DHT22;6622;49.752;6.100;2022-08-21T05:06:48;12.20;99.90
13113;DHT22;6622;49.752;6.100;2022-08-21T05:09:16;12.30;99.90
13113;DHT22;6622;49.752;6.100;2022-08-21T05:11:42;12.20;99.90
13113;DHT22;6622;49.752;6.100;2022-08-21T05:14:09;12.20;99.90
13113;DHT22;6622;49.752;6.100;2022-08-21T05:16:35;12.40;99.90
13113;DHT22;6622;49.752;6.100;2022-08-21T05:19:03;12.40;99.90
13113;DHT22;6622;49.752;6.100;2022-08-21T05:21:29;12.40;99.90
13113;DHT22;6622;49.752;6.100;2022-08-21T05:23:56;12.40;99.90
13113;DHT22;6622;49.752;6.100;2022-08-21T05:26:23;12.40;99.90
13113;DHT22;6622;49.752;6.100;2022-08-21T05:28:50;12.30;99.90
13113;DHT22;6622;49.752;6.100;2022-08-21T05:31:16;12.40;99.90
13113;DHT22;6622;49.752;6.100;2022-08-21T05:33:43;12.40;99.90
13113;DHT22;6622;49.752;6.100;2022-08-21T05:36:10;12.40;99.90
13113;DHT22;6622;49.752;6.100;2022-08-21T05:38:36;12.50;99.90
13113;DHT22;6622;49.752;6.100;2022-08-21T05:41:03;12.60;99.90
13113;DHT22;6622;49.752;6.100;2022-08-21T05:43:30;12.60;99.90
13113;DHT22;6622;49.752;6.100;2022-08-21T05:45:56;12.60;99.90
13113;DHT22;6622;49.752;6.100;2022-08-21T05:48:23;12.70;99.90
13113;DHT22;6622;49.752;6.100;2022-08-21T05:50:50;12.90;99.90
13113;DHT22;6622;49.752;6.100;2022-08-21T05:53:16;13.20;99.90
13113;DHT22;6622;49.752;6.100;2022-08-21T05:55:43;13.40;99.90
13113;DHT22;6622;49.752;6.100;2022-08-21T05:58:10;13.80;99.90
13113;DHT22;6622;49.752;6.100;2022-08-21T06:00:37;13.80;99.90
13113;DHT22;6622;49.752;6.100;2022-08-21T06:03:03;14.20;99.90
13113;DHT22;6622;49.752;6.100;2022-08-21T06:05:31;14.60;99.90
13113;DHT22;6622;49.752;6.100;2022-08-21T06:07:57;14.60;99.90
13113;DHT22;6622;49.752;6.100;2022-08-21T06:10:24;14.90;99.90
13113;DHT22;6622;49.752;6.100;2022-08-21T06:12:54;15.20;99.90
13113;DHT22;6622;49.752;6.100;2022-08-21T06:15:20;15.50;99.90
13113;DHT22;6622;49.752;6.100;2022-08-21T06:17:47;15.20;99.90
13113;DHT22;6622;49.752;6.100;2022-08-21T06:20:13;15.10;99.90
13113;DHT22;6622;49.752;6.100;2022-08-21T06:22:40;15.40;99.90
13113;DHT22;6622;49.752;6.100;2022-08-21T06:25:07;16.10;99.90
13113;DHT22;6622;49.752;6.100;2022-08-21T06:27:34;16.10;99.90
13113;DHT22;6622;49.752;6.100;2022-08-21T06:30:01;16.60;99.90
13113;DHT22;6622;49.752;6.100;2022-08-21T06:32:27;16.30;99.90
13113;DHT22;6622;49.752;6.100;2022-08-21T06:34:54;16.50;99.90
13113;DHT22;6622;49.752;6.100;2022-08-21T06:37:21;17.40;99.90
13113;DHT22;6622;49.752;6.100;2022-08-21T06:39:47;18.20;99.90
13113;DHT22;6622;49.752;6.100;2022-08-21T06:42:17;18.70;99.90
13113;DHT22;6622;49.752;6.100;2022-08-21T06:44:43;19.10;99.90
13113;DHT22;6622;49.752;6.100;2022-08-21T06:47:10;18.90;99.90
13113;DHT22;6622;49.752;6.100;2022-08-21T06:49:36;18.90;99.90
13113;DHT22;6622;49.752;6.100;2022-08-21T06:52:03;18.30;99.90
13113;DHT22;6622;49.752;6.100;2022-08-21T06:54:30;17.70;99.90
13113;DHT22;6622;49.752;6.100;2022-08-21T06:56:56;17.70;99.90
13113;DHT22;6622;49.752;6.100;2022-08-21T06:59:24;17.50;99.90
13113;DHT22;6622;49.752;6.100;2022-08-21T07:01:50;17.50;99.90
13113;DHT22;6622;49.752;6.100;2022-08-21T07:04:17;17.80;99.90
13113;DHT22;6622;49.752;6.100;2022-08-21T07:06:44;18.60;99.90
13113;DHT22;6622;49.752;6.100;2022-08-21T07:09:11;18.90;99.90
13113;DHT22;6622;49.752;6.100;2022-08-21T07:11:38;18.90;99.90
13113;DHT22;6622;49.752;6.100;2022-08-21T07:14:04;19.30;99.90
13113;DHT22;6622;49.752;6.100;2022-08-21T07:16:31;19.20;99.90
13113;DHT22;6622;49.752;6.100;2022-08-21T07:18:58;19.60;99.90
13113;DHT22;6622;49.752;6.100;2022-08-21T07:21:25;19.60;99.90
13113;DHT22;6622;49.752;6.100;2022-08-21T07:23:52;20.40;99.90
13113;DHT22;6622;49.752;6.100;2022-08-21T07:26:20;21.20;99.90
13113;DHT22;6622;49.752;6.100;2022-08-21T07:28:46;20.40;99.90
13113;DHT22;6622;49.752;6.100;2022-08-21T07:31:13;20.40;99.90
13113;DHT22;6622;49.752;6.100;2022-08-21T07:33:39;19.60;99.90
13113;DHT22;6622;49.752;6.100;2022-08-21T07:36:06;20.30;99.90
13113;DHT22;6622;49.752;6.100;2022-08-21T07:38:32;20.50;99.90
13113;DHT22;6622;49.752;6.100;2022-08-21T07:40:59;20.50;99.90
13113;DHT22;6622;49.752;6.100;2022-08-21T07:43:26;20.10;99.90
13113;DHT22;6622;49.752;6.100;2022-08-21T07:45:52;20.50;99.90
13113;DHT22;6622;49.752;6.100;2022-08-21T07:48:20;21.00;99.90
13113;DHT22;6622;49.752;6.100;2022-08-21T07:50:46;21.00;99.90
13113;DHT22;6622;49.752;6.100;2022-08-21T07:53:13;21.30;99.90
13113;DHT22;6622;49.752;6.100;2022-08-21T07:55:40;21.50;99.90
13113;DHT22;6622;49.752;6.100;2022-08-21T07:58:07;21.40;99.90
13113;DHT22;6622;49.752;6.100;2022-08-21T08:00:33;21.60;99.90
13113;DHT22;6622;49.752;6.100;2022-08-21T08:03:00;21.90;99.90
13113;DHT22;6622;49.752;6.100;2022-08-21T08:05:27;22.20;99.90
13113;DHT22;6622;49.752;6.100;2022-08-21T08:07:54;21.60;99.90
13113;DHT22;6622;49.752;6.100;2022-08-21T08:10:21;21.50;99.90
13113;DHT22;6622;49.752;6.100;2022-08-21T08:12:47;21.70;99.90
13113;DHT22;6622;49.752;6.100;2022-08-21T08:15:15;21.60;99.90
13113;DHT22;6622;49.752;6.100;2022-08-21T08:17:41;22.40;99.90
13113;DHT22;6622;49.752;6.100;2022-08-21T08:20:09;22.40;99.90
13113;DHT22;6622;49.752;6.100;2022-08-21T08:22:35;22.50;99.90
13113;DHT22;6622;49.752;6.100;2022-08-21T08:25:01;22.80;99.90
13113;DHT22;6622;49.752;6.100;2022-08-21T08:27:28;22.60;99.90
13113;DHT22;6622;49.752;6.100;2022-08-21T08:29:54;22.40;99.90
13113;DHT22;6622;49.752;6.100;2022-08-21T08:32:22;22.80;99.90
13113;DHT22;6622;49.752;6.100;2022-08-21T08:34:48;22.90;99.90
13113;DHT22;6622;49.752;6.100;2022-08-21T08:37:14;22.90;99.90
13113;DHT22;6622;49.752;6.100;2022-08-21T08:39:41;23.10;99.90
13113;DHT22;6622;49.752;6.100;2022-08-21T08:42:31;22.90;99.90
13113;DHT22;6622;49.752;6.100;2022-08-21T08:44:55;23.20;99.90
13113;DHT22;6622;49.752;6.100;2022-08-21T08:47:19;23.70;99.90
13113;DHT22;6622;49.752;6.100;2022-08-21T08:49:54;24.00;99.90
13113;DHT22;6622;49.752;6.100;2022-08-21T08:52:22;24.40;99.90
13113;DHT22;6622;49.752;6.100;2022-08-21T08:54:51;24.70;99.90
13113;DHT22;6622;49.752;6.100;2022-08-21T08:57:16;24.70;99.90
13113;DHT22;6622;49.752;6.100;2022-08-21T08:59:43;24.40;99.90
13113;DHT22;6622;49.752;6.100;2022-08-21T09:02:09;24.40;99.90
13113;DHT22;6622;49.752;6.100;2022-08-21T09:04:35;24.40;99.90
13113;DHT22;6622;49.752;6.100;2022-08-21T09:10:02;24.10;99.90
13113;DHT22;6622;49.752;6.100;2022-08-21T09:12:58;24.50;99.90
13113;DHT22;6622;49.752;6.100;2022-08-21T09:15:24;24.30;99.90
13113;DHT22;6622;49.752;6.100;2022-08-21T09:21:01;24.70;99.90
13113;DHT22;6622;49.752;6.100;2022-08-21T09:23:27;24.90;99.90
13113;DHT22;6622;49.752;6.100;2022-08-21T09:28:17;25.10;99.90
13113;DHT22;6622;49.752;6.100;2022-08-21T09:30:44;25.40;99.90
13113;DHT22;6622;49.752;6.100;2022-08-21T09:33:11;25.80;99.90
13113;DHT22;6622;49.752;6.100;2022-08-21T09:35:47;25.70;99.90
13113;DHT22;6622;49.752;6.100;2022-08-21T09:38:05;25.80;99.90
13113;DHT22;6622;49.752;6.100;2022-08-21T09:40:39;25.80;99.90
13113;DHT22;6622;49.752;6.100;2022-08-21T09:45:37;25.00;99.90
13113;DHT22;6622;49.752;6.100;2022-08-21T09:48:17;25.00;99.90
13113;DHT22;6622;49.752;6.100;2022-08-21T09:50:41;25.30;99.90
13113;DHT22;6622;49.752;6.100;2022-08-21T09:53:15;25.50;99.90
13113;DHT22;6622;49.752;6.100;2022-08-21T09:55:53;25.60;99.90
13113;DHT22;6622;49.752;6.100;2022-08-21T09:58:38;25.60;99.90
13113;DHT22;6622;49.752;6.100;2022-08-21T10:01:05;26.10;99.90
13113;DHT22;6622;49.752;6.100;2022-08-21T10:03:30;26.20;99.90
13113;DHT22;6622;49.752;6.100;2022-08-21T10:06:03;26.30;99.90
13113;DHT22;6622;49.752;6.100;2022-08-21T10:08:28;26.30;99.90
13113;DHT22;6622;49.752;6.100;2022-08-21T10:10:55;26.10;99.90
13113;DHT22;6622;49.752;6.100;2022-08-21T10:13:25;26.30;99.90
13113;DHT22;6622;49.752;6.100;2022-08-21T10:16:04;26.30;99.90
13113;DHT22;6622;49.752;6.100;2022-08-21T10:18:40;26.50;99.90
13113;DHT22;6622;49.752;6.100;2022-08-21T10:21:11;26.50;99.90
13113;DHT22;6622;49.752;6.100;2022-08-21T10:26:11;26.20;99.90
13113;DHT22;6622;49.752;6.100;2022-08-21T10:28:37;26.30;99.90
13113;DHT22;6622;49.752;6.100;2022-08-21T10:33:45;26.40;99.90
13113;DHT22;6622;49.752;6.100;2022-08-21T10:36:12;26.50;99.90
13113;DHT22;6622;49.752;6.100;2022-08-21T10:38:42;26.60;99.90
13113;DHT22;6622;49.752;6.100;2022-08-21T10:41:23;26.90;99.90
13113;DHT22;6622;49.752;6.100;2022-08-21T10:54:29;27.30;99.90
13113;DHT22;6622;49.752;6.100;2022-08-21T10:56:55;27.00;99.90
13113;DHT22;6622;49.752;6.100;2022-08-21T10:59:31;27.20;99.90
13113;DHT22;6622;49.752;6.100;2022-08-21T11:02:07;27.10;99.90
13113;DHT22;6622;49.752;6.100;2022-08-21T11:07:07;27.40;99.90
13113;DHT22;6622;49.752;6.100;2022-08-21T11:09:32;27.40;99.90
13113;DHT22;6622;49.752;6.100;2022-08-21T11:12:02;27.90;99.90
13113;DHT22;6622;49.752;6.100;2022-08-21T11:14:38;28.20;99.90
13113;DHT22;6622;49.752;6.100;2022-08-21T11:17:09;26.80;99.90
13113;DHT22;6622;49.752;6.100;2022-08-21T11:19:54;26.80;99.90
13113;DHT22;6622;49.752;6.100;2022-08-21T11:24:57;27.30;99.90
13113;DHT22;6622;49.752;6.100;2022-08-21T11:27:26;26.70;99.90
13113;DHT22;6622;49.752;6.100;2022-08-21T11:29:55;27.30;99.90
13113;DHT22;6622;49.752;6.100;2022-08-21T11:45:56;27.40;99.90
13113;DHT22;6622;49.752;6.100;2022-08-21T11:48:37;27.30;99.90
13113;DHT22;6622;49.752;6.100;2022-08-21T11:51:03;27.90;99.90
13113;DHT22;6622;49.752;6.100;2022-08-21T11:53:32;27.90;99.90
13113;DHT22;6622;49.752;6.100;2022-08-21T11:56:02;27.80;99.90
13113;DHT22;6622;49.752;6.100;2022-08-21T11:58:35;27.50;99.90
13113;DHT22;6622;49.752;6.100;2022-08-21T12:01:20;27.20;99.90
13113;DHT22;6622;49.752;6.100;2022-08-21T12:03:51;27.10;99.90
13113;DHT22;6622;49.752;6.100;2022-08-21T12:06:11;27.40;99.90
13113;DHT22;6622;49.752;6.100;2022-08-21T12:08:38;27.50;99.90
13113;DHT22;6622;49.752;6.100;2022-08-21T12:11:24;27.60;99.90
13113;DHT22;6622;49.752;6.100;2022-08-21T12:13:35;27.60;99.90
13113;DHT22;6622;49.752;6.100;2022-08-21T12:18:36;27.10;99.90
13113;DHT22;6622;49.752;6.100;2022-08-21T12:24:02;27.10;99.90
13113;DHT22;6622;49.752;6.100;2022-08-21T12:26:30;27.00;99.90
13113;DHT22;6622;49.752;6.100;2022-08-21T12:29:14;27.10;99.90
13113;DHT22;6622;49.752;6.100;2022-08-21T12:31:30;27.00;99.90
13113;DHT22;6622;49.752;6.100;2022-08-21T12:34:00;26.90;99.90
13113;DHT22;6622;49.752;6.100;2022-08-21T12:36:40;27.00;99.90
13113;DHT22;6622;49.752;6.100;2022-08-21T12:39:11;27.20;99.90
13113;DHT22;6622;49.752;6.100;2022-08-21T12:41:28;27.40;99.90
13113;DHT22;6622;49.752;6.100;2022-08-21T12:44:10;27.20;99.90
13113;DHT22;6622;49.752;6.100;2022-08-21T12:46:52;27.00;99.90
13113;DHT22;6622;49.752;6.100;2022-08-21T12:49:26;27.20;99.90
13113;DHT22;6622;49.752;6.100;2022-08-21T12:51:56;27.30;99.90
13113;DHT22;6622;49.752;6.100;2022-08-21T12:54:27;27.30;99.90
13113;DHT22;6622;49.752;6.100;2022-08-21T12:56:55;27.30;99.90
13113;DHT22;6622;49.752;6.100;2022-08-21T12:59:21;27.30;99.90
13113;DHT22;6622;49.752;6.100;2022-08-21T13:01:49;27.00;99.90
13113;DHT22;6622;49.752;6.100;2022-08-21T13:04:32;26.90;99.90
13113;DHT22;6622;49.752;6.100;2022-08-21T13:06:54;27.00;99.90
13113;DHT22;6622;49.752;6.100;2022-08-21T13:09:29;27.40;99.90
13113;DHT22;6622;49.752;6.100;2022-08-21T13:11:55;27.40;99.90
13113;DHT22;6622;49.752;6.100;2022-08-21T13:14:31;27.60;99.90
13113;DHT22;6622;49.752;6.100;2022-08-21T13:16:58;27.10;99.90
13113;DHT22;6622;49.752;6.100;2022-08-21T13:19:24;27.10;99.90
13113;DHT22;6622;49.752;6.100;2022-08-21T13:21:51;27.10;99.90
13113;DHT22;6622;49.752;6.100;2022-08-21T13:24:21;27.20;99.90
13113;DHT22;6622;49.752;6.100;2022-08-21T13:26:47;27.10;99.90
13113;DHT22;6622;49.752;6.100;2022-08-21T13:29:14;27.20;99.90
13113;DHT22;6622;49.752;6.100;2022-08-21T13:31:39;26.80;99.90
13113;DHT22;6622;49.752;6.100;2022-08-21T13:34:06;26.80;99.90
13113;DHT22;6622;49.752;6.100;2022-08-21T13:36:34;27.10;99.90
13113;DHT22;6622;49.752;6.100;2022-08-21T13:38:59;27.40;99.90
13113;DHT22;6622;49.752;6.100;2022-08-21T13:41:30;27.70;99.90
13113;DHT22;6622;49.752;6.100;2022-08-21T13:44:00;27.60;99.90
13113;DHT22;6622;49.752;6.100;2022-08-21T13:46:26;27.50;99.90
13113;DHT22;6622;49.752;6.100;2022-08-21T13:48:52;27.50;99.90
13113;DHT22;6622;49.752;6.100;2022-08-21T13:51:18;27.50;99.90
13113;DHT22;6622;49.752;6.100;2022-08-21T13:53:47;26.90;99.90
13113;DHT22;6622;49.752;6.100;2022-08-21T13:58:50;26.90;99.90
13113;DHT22;6622;49.752;6.100;2022-08-21T14:01:24;26.70;99.90
13113;DHT22;6622;49.752;6.100;2022-08-21T14:03:50;27.30;99.90
13113;DHT22;6622;49.752;6.100;2022-08-21T14:06:20;27.30;99.90
13113;DHT22;6622;49.752;6.100;2022-08-21T14:08:47;27.40;99.90
13113;DHT22;6622;49.752;6.100;2022-08-21T14:11:11;27.70;99.90
13113;DHT22;6622;49.752;6.100;2022-08-21T14:13:49;27.40;99.90
13113;DHT22;6622;49.752;6.100;2022-08-21T14:16:22;27.40;99.90
13113;DHT22;6622;49.752;6.100;2022-08-21T14:18:48;27.60;99.90
13113;DHT22;6622;49.752;6.100;2022-08-21T14:21:22;27.40;99.90
13113;DHT22;6622;49.752;6.100;2022-08-21T14:23:41;27.40;99.90
13113;DHT22;6622;49.752;6.100;2022-08-21T14:26:08;27.30;99.90
13113;DHT22;6622;49.752;6.100;2022-08-21T14:28:39;27.40;99.90
13113;DHT22;6622;49.752;6.100;2022-08-21T14:31:17;27.30;99.90
13113;DHT22;6622;49.752;6.100;2022-08-21T14:33:42;27.00;99.90
13113;DHT22;6622;49.752;6.100;2022-08-21T14:36:09;26.90;99.90
13113;DHT22;6622;49.752;6.100;2022-08-21T14:38:37;26.90;99.90
13113;DHT22;6622;49.752;6.100;2022-08-21T14:41:17;27.00;99.90
13113;DHT22;6622;49.752;6.100;2022-08-21T14:43:32;27.00;99.90
13113;DHT22;6622;49.752;6.100;2022-08-21T14:45:58;26.90;99.90
13113;DHT22;6622;49.752;6.100;2022-08-21T14:48:25;26.90;99.90
13113;DHT22;6622;49.752;6.100;2022-08-21T14:50:51;26.90;99.90
13113;DHT22;6622;49.752;6.100;2022-08-21T14:53:18;26.90;99.90
13113;DHT22;6622;49.752;6.100;2022-08-21T14:55:45;26.70;99.90
13113;DHT22;6622;49.752;6.100;2022-08-21T14:58:30;26.80;99.90
13113;DHT22;6622;49.752;6.100;2022-08-21T15:00:56;26.60;99.90
13113;DHT22;6622;49.752;6.100;2022-08-21T15:03:23;26.50;99.90
13113;DHT22;6622;49.752;6.100;2022-08-21T15:05:50;26.60;99.90
13113;DHT22;6622;49.752;6.100;2022-08-21T15:08:17;26.60;99.90
13113;DHT22;6622;49.752;6.100;2022-08-21T15:10:43;26.60;99.90
13113;DHT22;6622;49.752;6.100;2022-08-21T15:13:10;26.60;99.90
13113;DHT22;6622;49.752;6.100;2022-08-21T15:15:41;26.50;99.90
13113;DHT22;6622;49.752;6.100;2022-08-21T15:18:07;26.40;99.90
13113;DHT22;6622;49.752;6.100;2022-08-21T15:20:34;26.40;99.90
13113;DHT22;6622;49.752;6.100;2022-08-21T15:23:00;26.20;99.90
13113;DHT22;6622;49.752;6.100;2022-08-21T15:25:27;26.20;99.90
13113;DHT22;6622;49.752;6.100;2022-08-21T15:27:54;26.20;99.90
13113;DHT22;6622;49.752;6.100;2022-08-21T15:30:21;26.20;99.90
13113;DHT22;6622;49.752;6.100;2022-08-21T15:32:47;26.20;99.90
13113;DHT22;6622;49.752;6.100;2022-08-21T15:35:14;26.20;99.90
13113;DHT22;6622;49.752;6.100;2022-08-21T15:37:41;26.10;99.90
13113;DHT22;6622;49.752;6.100;2022-08-21T15:40:08;26.00;99.90
13113;DHT22;6622;49.752;6.100;2022-08-21T15:42:35;26.00;99.90
13113;DHT22;6622;49.752;6.100;2022-08-21T15:45:02;25.90;99.90
13113;DHT22;6622;49.752;6.100;2022-08-21T15:47:29;25.90;99.90
13113;DHT22;6622;49.752;6.100;2022-08-21T15:49:55;25.80;99.90
13113;DHT22;6622;49.752;6.100;2022-08-21T15:52:21;25.80;99.90
13113;DHT22;6622;49.752;6.100;2022-08-21T15:54:48;25.70;99.90
13113;DHT22;6622;49.752;6.100;2022-08-21T15:57:20;25.70;99.90
13113;DHT22;6622;49.752;6.100;2022-08-21T15:59:42;25.70;99.90
13113;DHT22;6622;49.752;6.100;2022-08-21T16:02:12;25.70;99.90
13113;DHT22;6622;49.752;6.100;2022-08-21T16:04:34;25.70;99.90
13113;DHT22;6622;49.752;6.100;2022-08-21T16:07:01;25.90;99.90
13113;DHT22;6622;49.752;6.100;2022-08-21T16:09:28;26.00;99.90
13113;DHT22;6622;49.752;6.100;2022-08-21T16:11:54;26.30;99.90
13113;DHT22;6622;49.752;6.100;2022-08-21T16:14:21;26.40;99.90
13113;DHT22;6622;49.752;6.100;2022-08-21T16:16:48;26.40;99.90
13113;DHT22;6622;49.752;6.100;2022-08-21T16:19:15;26.30;99.90
13113;DHT22;6622;49.752;6.100;2022-08-21T16:21:42;26.50;99.90
13113;DHT22;6622;49.752;6.100;2022-08-21T16:24:08;26.40;99.90
13113;DHT22;6622;49.752;6.100;2022-08-21T16:26:36;26.10;99.90
13113;DHT22;6622;49.752;6.100;2022-08-21T16:29:03;26.00;99.90
13113;DHT22;6622;49.752;6.100;2022-08-21T16:31:29;25.90;99.90
13113;DHT22;6622;49.752;6.100;2022-08-21T16:33:56;25.70;99.90
13113;DHT22;6622;49.752;6.100;2022-08-21T16:36:23;25.40;99.90
13113;DHT22;6622;49.752;6.100;2022-08-21T16:38:50;25.40;99.90
13113;DHT22;6622;49.752;6.100;2022-08-21T16:41:17;25.20;99.90